Time;durP1;ratioP1;P1;durP2;ratioP2;P2;SDS_P1;SDS_P2;PMS_P1;PMS_P2;Temp;Humidity;BMP_temperature;BMP_pressure;BME280_temperature;BME280_humidity;BME280_pressure;Samples;Min_cycle;Max_cycle;Signal;HPM_P1;HPM_P2
2023/04/29 00:00:42;;;;;;;18.85;7.88;;;9.80;99.90;;;;;;5121959;27;20488;-76
2023/04/29 00:03:08;;;;;;;17.75;7.70;;;9.80;99.90;;;;;;5088020;28;20032;-77
2023/04/29 00:05:33;;;;;;;17.65;7.65;;;9.80;99.90;;;;;;5071376;28;20044;-76
2023/04/29 00:07:59;;;;;;;19.90;9.00;;;9.80;99.90;;;;;;5091727;28;21534;-77
2023/04/29 00:10:24;;;;;;;20.95;8.25;;;9.80;99.90;;;;;;5090515;27;20122;-77
2023/04/29 00:12:50;;;;;;;20.98;8.40;;;9.80;99.90;;;;;;5088475;28;20042;-76
2023/04/29 00:15:16;;;;;;;24.73;8.65;;;9.80;99.90;;;;;;5076296;28;20156;-76
2023/04/29 00:17:42;;;;;;;18.33;8.13;;;9.80;99.90;;;;;;5089724;28;20069;-76
2023/04/29 00:20:09;;;;;;;19.15;9.02;;;9.80;99.90;;;;;;5087606;28;20614;-76
2023/04/29 00:22:34;;;;;;;18.83;7.93;;;9.80;99.90;;;;;;5088320;28;20050;-76
2023/04/29 00:25:00;;;;;;;20.17;8.57;;;9.80;99.90;;;;;;5088754;28;20036;-76
2023/04/29 00:27:26;;;;;;;18.95;8.05;;;9.70;99.90;;;;;;5089668;28;20085;-76
2023/04/29 00:29:51;;;;;;;18.73;7.97;;;9.70;99.90;;;;;;5091786;28;20067;-76
2023/04/29 00:32:17;;;;;;;20.42;8.27;;;9.70;99.90;;;;;;5089916;28;21486;-76
2023/04/29 00:34:43;;;;;;;16.52;7.45;;;9.70;99.90;;;;;;5087939;28;20850;-76
2023/04/29 00:37:09;;;;;;;21.23;7.47;;;9.70;99.90;;;;;;5105302;27;20043;-77
2023/04/29 00:39:34;;;;;;;15.25;6.95;;;9.70;99.90;;;;;;5088899;28;20032;-76
2023/04/29 00:42:02;;;;;;;18.00;8.63;;;9.60;99.90;;;;;;5077460;28;20043;-76
2023/04/29 00:44:28;;;;;;;17.02;7.78;;;9.70;99.90;;;;;;5079347;28;20128;-76
2023/04/29 00:46:53;;;;;;;19.05;7.63;;;9.70;99.90;;;;;;5087386;28;20516;-76
2023/04/29 00:49:19;;;;;;;18.65;7.50;;;9.70;99.90;;;;;;5076254;28;20028;-76
2023/04/29 00:51:45;;;;;;;19.30;7.70;;;9.60;99.90;;;;;;5141413;27;20108;-76
2023/04/29 00:54:11;;;;;;;19.30;7.60;;;9.60;99.90;;;;;;5071945;28;20036;-76
2023/04/29 00:56:40;;;;;;;18.05;7.32;;;9.60;99.90;;;;;;5090298;28;20043;-76
2023/04/29 00:59:08;;;;;;;16.98;7.50;;;9.60;99.90;;;;;;5096259;28;20090;-76
2023/04/29 01:01:34;;;;;;;20.75;7.95;;;9.60;99.90;;;;;;5095133;28;20039;-76
2023/04/29 01:04:01;;;;;;;21.10;8.07;;;9.60;99.90;;;;;;5098421;28;20040;-76
2023/04/29 01:07:00;;;;;;;17.33;7.82;;;9.60;99.90;;;;;;5101565;28;20043;-76
2023/04/29 01:09:41;;;;;;;19.92;7.50;;;9.60;99.90;;;;;;5108304;28;20050;-76
2023/04/29 01:12:37;;;;;;;14.43;6.60;;;9.60;99.90;;;;;;5141101;27;20126;-76
2023/04/29 01:15:06;;;;;;;18.80;7.18;;;9.60;99.90;;;;;;5083320;28;20083;-76
2023/04/29 01:17:54;;;;;;;19.02;7.20;;;9.60;99.90;;;;;;5087991;28;20040;-76
2023/04/29 01:20:22;;;;;;;19.25;7.13;;;9.50;99.90;;;;;;5117386;27;20085;-76
2023/04/29 01:22:48;;;;;;;25.55;7.53;;;9.50;99.90;;;;;;5134551;27;20038;-76
2023/04/29 01:25:13;;;;;;;16.77;6.55;;;9.50;99.90;;;;;;5104027;28;20244;-76
2023/04/29 01:27:56;;;;;;;19.63;7.63;;;9.50;99.90;;;;;;5135830;27;20027;-76
2023/04/29 01:30:25;;;;;;;16.23;7.55;;;9.50;99.90;;;;;;5107525;28;20457;-76
2023/04/29 01:33:11;;;;;;;19.08;7.50;;;9.50;99.90;;;;;;5085703;28;20048;-76
2023/04/29 01:35:36;;;;;;;19.42;7.40;;;9.50;99.90;;;;;;5076871;28;20508;-76
2023/04/29 01:38:36;;;;;;;19.83;8.23;;;9.50;99.90;;;;;;5110065;28;20088;-76
2023/04/29 01:41:10;;;;;;;20.00;6.85;;;9.40;99.90;;;;;;5107003;27;20043;-76
2023/04/29 01:43:37;;;;;;;18.20;8.18;;;9.40;99.90;;;;;;5109281;28;20043;-76
2023/04/29 01:46:07;;;;;;;19.38;7.45;;;9.40;99.90;;;;;;5094994;28;20111;-76
2023/04/29 01:48:34;;;;;;;20.65;9.10;;;9.40;99.90;;;;;;5104526;28;20090;-76
2023/04/29 01:51:00;;;;;;;20.45;7.28;;;9.50;99.90;;;;;;5079283;28;20040;-76
2023/04/29 01:53:26;;;;;;;16.65;7.35;;;9.40;99.90;;;;;;5105870;28;20035;-76
2023/04/29 01:55:51;;;;;;;16.40;7.35;;;9.40;99.90;;;;;;5091996;28;20051;-76
2023/04/29 01:58:17;;;;;;;18.88;7.97;;;9.40;99.90;;;;;;5096964;27;20047;-76
2023/04/29 02:00:43;;;;;;;19.73;7.53;;;9.40;99.90;;;;;;5080067;28;20036;-76
2023/04/29 02:03:08;;;;;;;24.42;7.05;;;9.40;99.90;;;;;;5098737;28;20129;-76
2023/04/29 02:05:35;;;;;;;14.50;6.82;;;9.40;99.90;;;;;;5082125;28;20047;-76
2023/04/29 02:08:01;;;;;;;16.27;7.07;;;9.40;99.90;;;;;;5090091;28;20046;-76
2023/04/29 02:10:27;;;;;;;18.95;6.95;;;9.40;99.90;;;;;;5125775;27;20170;-76
2023/04/29 02:12:53;;;;;;;15.60;5.88;;;9.40;99.90;;;;;;5108819;27;20501;-76
2023/04/29 02:15:19;;;;;;;18.27;6.63;;;9.40;99.90;;;;;;5107004;28;20042;-76
2023/04/29 02:17:45;;;;;;;14.82;6.22;;;9.40;99.90;;;;;;5089036;27;20067;-76
2023/04/29 02:20:11;;;;;;;18.98;6.85;;;9.40;99.90;;;;;;5076789;28;20063;-76
2023/04/29 02:22:37;;;;;;;18.48;6.45;;;9.40;99.90;;;;;;5105481;28;20047;-76
2023/04/29 02:25:03;;;;;;;13.88;6.15;;;9.40;99.90;;;;;;5083872;28;20036;-76
2023/04/29 02:27:28;;;;;;;10.98;5.50;;;9.40;99.90;;;;;;5073007;28;20119;-76
2023/04/29 02:29:54;;;;;;;16.92;6.32;;;9.40;99.90;;;;;;5074116;28;20032;-76
2023/04/29 02:32:19;;;;;;;13.52;5.40;;;9.40;99.90;;;;;;5089827;28;20122;-76
2023/04/29 02:34:45;;;;;;;17.65;6.72;;;9.40;99.90;;;;;;5089017;28;20047;-76
2023/04/29 02:37:11;;;;;;;15.13;6.78;;;9.40;99.90;;;;;;5113395;27;20553;-76
2023/04/29 02:39:37;;;;;;;12.68;5.43;;;9.40;99.90;;;;;;5111401;28;20050;-76
2023/04/29 02:42:02;;;;;;;17.13;5.53;;;9.30;99.90;;;;;;5131224;27;20036;-76
2023/04/29 02:44:30;;;;;;;13.70;5.97;;;9.30;99.90;;;;;;5090364;28;20073;-76
2023/04/29 02:46:56;;;;;;;14.55;5.90;;;9.40;99.90;;;;;;5096599;27;20079;-76
2023/04/29 02:49:22;;;;;;;12.30;6.40;;;9.40;99.90;;;;;;5111078;28;20385;-76
2023/04/29 02:51:48;;;;;;;18.60;5.82;;;9.30;99.90;;;;;;5132669;27;20066;-76
2023/04/29 02:54:15;;;;;;;15.95;5.43;;;9.30;99.90;;;;;;5097189;28;20404;-76
2023/04/29 02:56:41;;;;;;;17.02;6.63;;;9.30;99.90;;;;;;5075211;28;20036;-76
2023/04/29 02:59:07;;;;;;;17.85;6.05;;;9.20;99.90;;;;;;5073730;28;20036;-76
2023/04/29 03:01:32;;;;;;;13.32;5.82;;;9.20;99.90;;;;;;5094323;28;20114;-76
2023/04/29 03:03:58;;;;;;;11.07;5.03;;;9.20;99.90;;;;;;5102004;28;20039;-76
2023/04/29 03:06:24;;;;;;;11.60;5.78;;;9.20;99.90;;;;;;5077773;28;20067;-76
2023/04/29 03:08:51;;;;;;;14.52;5.20;;;9.20;99.90;;;;;;5106556;28;20090;-76
2023/04/29 03:11:17;;;;;;;17.15;5.63;;;9.20;99.90;;;;;;5105266;28;20043;-76
2023/04/29 03:13:44;;;;;;;11.13;4.85;;;9.20;99.90;;;;;;5114904;27;20387;-76
2023/04/29 03:16:12;;;;;;;16.52;6.03;;;9.20;99.90;;;;;;5089918;28;20043;-76
2023/04/29 03:18:38;;;;;;;12.43;5.78;;;9.30;99.90;;;;;;5104355;28;20332;-76
2023/04/29 03:21:03;;;;;;;13.73;5.47;;;9.20;99.90;;;;;;5103008;27;20052;-76
2023/04/29 03:23:29;;;;;;;14.35;5.22;;;9.20;99.90;;;;;;5142466;27;20092;-76
2023/04/29 03:25:55;;;;;;;13.40;5.35;;;9.20;99.90;;;;;;5123745;27;20444;-76
2023/04/29 03:28:21;;;;;;;11.32;5.30;;;9.20;99.90;;;;;;5134426;27;20111;-76
2023/04/29 03:30:47;;;;;;;13.82;5.53;;;9.20;99.90;;;;;;5073495;28;20120;-76
2023/04/29 03:33:12;;;;;;;12.95;5.20;;;9.20;99.90;;;;;;5085571;27;20032;-76
2023/04/29 03:35:38;;;;;;;11.43;4.68;;;9.10;99.90;;;;;;5103454;28;20054;-76
2023/04/29 03:38:04;;;;;;;16.05;5.40;;;9.10;99.90;;;;;;5083825;28;20043;-76
2023/04/29 03:40:29;;;;;;;17.00;5.30;;;9.10;99.90;;;;;;5143487;27;20035;-76
2023/04/29 03:42:55;;;;;;;15.65;5.78;;;9.10;99.90;;;;;;5091983;28;20040;-76
2023/04/29 03:45:21;;;;;;;14.52;5.80;;;9.10;99.90;;;;;;5089207;28;20063;-76
2023/04/29 03:47:46;;;;;;;16.42;5.90;;;9.10;99.90;;;;;;5088937;28;20539;-76
2023/04/29 03:50:12;;;;;;;17.00;6.75;;;9.10;99.90;;;;;;5105777;27;20036;-76
2023/04/29 03:52:38;;;;;;;12.93;5.25;;;9.10;99.90;;;;;;5090470;28;20105;-76
2023/04/29 03:55:03;;;;;;;13.52;5.38;;;9.10;99.90;;;;;;5071710;28;20043;-76
2023/04/29 03:57:29;;;;;;;13.80;5.70;;;9.10;99.90;;;;;;5080181;28;20046;-76
2023/04/29 03:59:55;;;;;;;13.25;5.50;;;9.00;99.90;;;;;;5092053;28;20053;-76
2023/04/29 04:02:21;;;;;;;13.75;5.55;;;9.10;99.90;;;;;;5098893;28;20036;-76
2023/04/29 04:04:46;;;;;;;14.88;5.70;;;9.00;99.90;;;;;;5106642;27;20040;-76
2023/04/29 04:07:12;;;;;;;12.40;4.88;;;9.00;99.90;;;;;;5139447;27;20035;-76
2023/04/29 04:09:37;;;;;;;15.30;5.63;;;9.00;99.90;;;;;;5143830;27;20043;-77
2023/04/29 04:12:03;;;;;;;13.00;5.95;;;9.00;99.90;;;;;;5125579;27;20036;-76
2023/04/29 04:14:29;;;;;;;12.73;5.22;;;9.00;99.90;;;;;;5087765;28;20436;-76
2023/04/29 04:16:54;;;;;;;15.02;6.20;;;9.00;99.90;;;;;;5088609;28;20051;-77
2023/04/29 04:19:20;;;;;;;16.45;6.53;;;9.00;99.90;;;;;;5073968;28;20062;-77
2023/04/29 04:21:46;;;;;;;12.38;5.60;;;9.00;99.90;;;;;;5072312;28;20065;-77
2023/04/29 04:24:11;;;;;;;14.32;6.35;;;9.00;99.90;;;;;;5088735;28;20119;-77
2023/04/29 04:26:37;;;;;;;13.75;5.85;;;9.00;99.90;;;;;;5071210;28;20240;-76
2023/04/29 04:29:03;;;;;;;12.52;5.65;;;9.00;99.90;;;;;;5088891;28;20100;-76
2023/04/29 04:31:29;;;;;;;14.18;5.60;;;9.00;99.90;;;;;;5092264;28;20401;-76
2023/04/29 04:33:55;;;;;;;14.73;6.05;;;8.90;99.90;;;;;;5084293;28;20432;-76
2023/04/29 04:36:21;;;;;;;16.00;5.97;;;8.90;99.90;;;;;;5134953;27;20124;-76
2023/04/29 04:38:46;;;;;;;13.77;4.70;;;8.90;99.90;;;;;;5102855;28;20043;-77
2023/04/29 04:41:12;;;;;;;14.48;5.68;;;8.90;99.90;;;;;;5091209;28;20048;-77
2023/04/29 04:43:40;;;;;;;14.88;5.45;;;8.90;99.90;;;;;;5117215;27;20038;-77
2023/04/29 04:46:10;;;;;;;11.38;5.25;;;8.90;99.90;;;;;;5099923;28;20044;-77
2023/04/29 04:48:36;;;;;;;13.05;5.25;;;8.90;99.90;;;;;;5106120;28;20032;-76
2023/04/29 04:51:08;;;;;;;20.65;6.13;;;8.90;99.90;;;;;;5098092;27;20047;-77
2023/04/29 04:53:34;;;;;;;13.55;4.80;;;8.90;99.90;;;;;;5088231;28;20421;-77
2023/04/29 04:56:01;;;;;;;10.75;5.22;;;8.90;99.90;;;;;;5098415;28;20039;-77
2023/04/29 04:58:26;;;;;;;14.90;5.10;;;8.90;99.90;;;;;;5087532;28;20042;-77
2023/04/29 05:00:52;;;;;;;16.13;5.13;;;8.90;99.90;;;;;;5090030;28;20028;-77
2023/04/29 05:03:17;;;;;;;13.32;4.78;;;8.90;99.90;;;;;;5088434;28;20072;-77
2023/04/29 05:05:43;;;;;;;12.25;5.60;;;8.90;99.90;;;;;;5085942;28;20405;-77
2023/04/29 05:08:09;;;;;;;12.32;5.25;;;8.90;99.90;;;;;;5088033;28;20035;-77
2023/04/29 05:10:37;;;;;;;11.20;5.25;;;8.90;99.90;;;;;;5088032;28;20071;-77
2023/04/29 05:13:03;;;;;;;12.55;5.43;;;8.90;99.90;;;;;;5121089;27;20973;-77
2023/04/29 05:15:28;;;;;;;13.18;5.88;;;8.90;99.90;;;;;;5104680;28;20048;-76
2023/04/29 05:17:54;;;;;;;11.90;4.80;;;9.00;99.90;;;;;;5100318;28;20397;-77
2023/04/29 05:20:20;;;;;;;14.43;5.10;;;9.00;99.90;;;;;;5116517;28;20152;-77
2023/04/29 05:22:45;;;;;;;14.18;4.20;;;9.00;99.90;;;;;;5137697;27;20051;-77
2023/04/29 05:25:11;;;;;;;12.88;5.05;;;9.00;99.90;;;;;;5122301;27;20531;-77
2023/04/29 05:27:38;;;;;;;10.45;4.32;;;9.00;99.90;;;;;;5100396;28;20038;-77
2023/04/29 05:30:03;;;;;;;9.88;3.75;;;9.00;99.90;;;;;;5092637;28;20035;-77
2023/04/29 05:32:29;;;;;;;14.60;5.28;;;9.00;99.90;;;;;;5093067;28;20120;-77
2023/04/29 05:34:55;;;;;;;10.23;4.22;;;9.00;99.90;;;;;;5118380;28;20489;-77
2023/04/29 05:37:21;;;;;;;10.60;4.72;;;9.00;99.90;;;;;;5106495;28;20054;-77
2023/04/29 05:39:46;;;;;;;11.27;3.88;;;9.00;99.90;;;;;;5142692;27;20235;-77
2023/04/29 05:42:12;;;;;;;12.60;4.55;;;9.00;99.90;;;;;;5085302;28;20505;-77
2023/04/29 05:44:38;;;;;;;10.52;4.35;;;9.00;99.90;;;;;;5096031;28;20050;-77
2023/04/29 05:47:04;;;;;;;13.70;4.30;;;9.00;99.90;;;;;;5098130;28;20540;-77
2023/04/29 05:49:30;;;;;;;9.98;4.50;;;9.00;99.90;;;;;;5105882;28;20127;-77
2023/04/29 05:51:55;;;;;;;12.13;4.53;;;9.00;99.90;;;;;;5108135;28;20047;-77
2023/04/29 05:54:21;;;;;;;8.57;4.38;;;9.00;99.90;;;;;;5127307;27;20070;-77
2023/04/29 05:56:46;;;;;;;10.32;4.35;;;9.10;99.90;;;;;;5087055;28;20456;-77
2023/04/29 05:59:12;;;;;;;10.50;4.15;;;9.00;99.90;;;;;;5089785;28;20393;-76
2023/04/29 06:01:37;;;;;;;9.25;4.30;;;9.10;99.90;;;;;;5108712;28;20560;-77
2023/04/29 06:04:03;;;;;;;11.68;4.50;;;9.10;99.90;;;;;;5119203;28;20493;-77
2023/04/29 06:06:29;;;;;;;10.32;4.25;;;9.10;99.90;;;;;;5088831;28;20047;-77
2023/04/29 06:08:54;;;;;;;11.95;3.78;;;9.10;99.90;;;;;;5102044;28;20047;-77
2023/04/29 06:11:21;;;;;;;11.20;4.65;;;9.10;99.90;;;;;;5095633;28;20082;-77
2023/04/29 06:13:46;;;;;;;7.90;3.65;;;9.10;99.90;;;;;;5094713;28;20478;-77
2023/04/29 06:16:12;;;;;;;9.18;3.50;;;9.10;99.90;;;;;;5084866;28;20039;-77
2023/04/29 06:18:38;;;;;;;10.02;4.22;;;9.10;99.90;;;;;;5136852;27;20051;-77
2023/04/29 06:21:04;;;;;;;9.82;3.67;;;9.20;99.90;;;;;;5103748;28;20084;-77
2023/04/29 06:23:31;;;;;;;14.02;4.13;;;9.20;99.90;;;;;;5092480;28;20073;-79
2023/04/29 06:25:56;;;;;;;10.60;3.92;;;9.20;99.90;;;;;;5081240;28;20086;-76
2023/04/29 06:28:22;;;;;;;8.55;3.42;;;9.20;99.90;;;;;;5092789;28;20566;-77
2023/04/29 06:30:49;;;;;;;9.38;4.07;;;9.30;99.90;;;;;;5077590;28;20058;-77
2023/04/29 06:33:14;;;;;;;9.30;3.50;;;9.30;99.90;;;;;;5096249;28;20055;-77
2023/04/29 06:35:40;;;;;;;7.90;3.75;;;9.30;99.90;;;;;;5070626;28;20469;-77
2023/04/29 06:38:07;;;;;;;7.35;3.60;;;9.30;99.90;;;;;;5094047;27;20055;-77
2023/04/29 06:40:33;;;;;;;9.25;3.90;;;9.40;99.90;;;;;;5092461;27;20574;-79
2023/04/29 06:42:59;;;;;;;8.43;3.58;;;9.40;99.90;;;;;;5096688;27;20642;-77
2023/04/29 06:45:24;;;;;;;8.10;3.22;;;9.50;99.90;;;;;;5108617;27;20063;-77
2023/04/29 06:47:50;;;;;;;8.07;3.47;;;9.50;99.90;;;;;;5109442;27;20077;-77
2023/04/29 06:50:15;;;;;;;10.25;3.97;;;9.40;99.90;;;;;;5090491;27;20629;-76
2023/04/29 06:52:41;;;;;;;10.15;3.90;;;9.60;99.90;;;;;;5099100;28;20127;-76
2023/04/29 06:55:07;;;;;;;10.00;3.22;;;9.60;99.90;;;;;;5135847;27;20070;-77
2023/04/29 06:57:33;;;;;;;8.63;3.70;;;9.60;99.90;;;;;;5082283;28;20036;-77
2023/04/29 06:59:58;;;;;;;8.48;3.25;;;9.70;99.90;;;;;;5100111;28;20286;-77
2023/04/29 07:02:24;;;;;;;8.23;3.63;;;9.60;99.90;;;;;;5096347;28;20694;-77
2023/04/29 07:04:49;;;;;;;6.40;3.15;;;9.70;99.90;;;;;;5134642;27;20040;-77
2023/04/29 07:07:15;;;;;;;8.95;3.50;;;9.80;99.90;;;;;;5091490;28;20031;-76
2023/04/29 07:09:41;;;;;;;8.68;3.58;;;9.80;99.90;;;;;;5097879;27;20451;-76
2023/04/29 07:12:07;;;;;;;9.15;4.05;;;9.80;99.90;;;;;;5077039;28;20031;-76
2023/04/29 07:14:32;;;;;;;8.20;3.42;;;9.80;99.90;;;;;;5077397;28;20051;-76
2023/04/29 07:16:58;;;;;;;8.57;2.83;;;9.90;99.90;;;;;;5098277;27;20044;-76
2023/04/29 07:19:24;;;;;;;9.15;3.25;;;9.90;99.90;;;;;;5097414;27;20063;-76
2023/04/29 07:21:49;;;;;;;7.60;3.33;;;9.90;99.90;;;;;;5116411;27;20404;-76
2023/04/29 07:24:15;;;;;;;6.40;3.08;;;10.00;99.90;;;;;;5101211;28;20039;-76
2023/04/29 07:26:43;;;;;;;7.65;3.50;;;10.00;99.90;;;;;;5105315;27;20443;-76
2023/04/29 07:29:09;;;;;;;6.10;3.08;;;10.00;99.90;;;;;;5086582;28;20035;-76
2023/04/29 07:31:35;;;;;;;8.75;3.83;;;10.10;99.90;;;;;;5127364;27;20497;-76
2023/04/29 07:34:01;;;;;;;8.70;3.10;;;10.10;99.90;;;;;;5086425;28;20039;-76
2023/04/29 07:36:27;;;;;;;6.35;3.28;;;10.10;99.90;;;;;;5107940;27;20047;-76
2023/04/29 07:38:53;;;;;;;7.30;3.35;;;10.20;99.90;;;;;;5077389;27;20047;-76
2023/04/29 07:41:19;;;;;;;6.55;3.25;;;10.30;99.90;;;;;;5099048;27;20485;-76
2023/04/29 07:43:44;;;;;;;7.65;2.90;;;10.30;99.90;;;;;;5086344;27;20492;-76
2023/04/29 07:46:10;;;;;;;7.07;3.00;;;10.30;99.90;;;;;;5094139;27;20112;-77
2023/04/29 07:48:38;;;;;;;6.13;2.40;;;10.40;99.90;;;;;;5077727;27;20544;-76
2023/04/29 07:51:04;;;;;;;5.78;3.03;;;10.40;99.90;;;;;;5096812;27;20118;-76
2023/04/29 07:53:29;;;;;;;5.68;2.85;;;10.40;99.90;;;;;;5081226;28;20626;-76
2023/04/29 07:55:55;;;;;;;4.28;2.42;;;10.50;99.90;;;;;;5129841;27;20092;-76
2023/04/29 07:58:21;;;;;;;6.07;2.65;;;10.50;99.90;;;;;;5077584;28;20060;-76
2023/04/29 08:00:47;;;;;;;10.13;2.92;;;10.50;99.90;;;;;;5079267;28;20354;-76
2023/04/29 08:03:12;;;;;;;12.88;3.60;;;10.60;99.90;;;;;;5097116;27;20089;-76
2023/04/29 08:05:38;;;;;;;7.45;3.28;;;10.60;99.90;;;;;;5112434;27;20591;-76
2023/04/29 08:08:04;;;;;;;4.82;2.50;;;10.60;99.90;;;;;;5095205;27;20481;-77
2023/04/29 08:10:30;;;;;;;5.55;2.58;;;10.60;99.90;;;;;;5089293;27;20370;-77
2023/04/29 08:12:56;;;;;;;6.13;3.22;;;10.60;99.90;;;;;;5087050;28;20086;-77
2023/04/29 08:15:22;;;;;;;8.63;3.20;;;10.60;99.90;;;;;;5112870;27;20035;-77
2023/04/29 08:17:48;;;;;;;5.68;2.90;;;10.70;99.90;;;;;;5099505;27;20042;-77
2023/04/29 08:20:14;;;;;;;8.02;3.05;;;10.70;99.90;;;;;;5099742;27;20945;-77
2023/04/29 08:22:39;;;;;;;8.10;2.90;;;10.80;99.90;;;;;;5078723;28;20048;-77
2023/04/29 08:25:06;;;;;;;6.47;2.80;;;10.80;99.90;;;;;;5081749;28;20582;-77
2023/04/29 08:27:32;;;;;;;6.68;3.00;;;10.80;99.90;;;;;;5077633;28;20043;-77
2023/04/29 08:29:58;;;;;;;7.30;3.05;;;10.80;99.90;;;;;;5098412;27;20036;-77
2023/04/29 08:32:23;;;;;;;6.65;3.33;;;10.90;99.90;;;;;;5074586;28;20437;-78
2023/04/29 08:34:49;;;;;;;8.23;3.08;;;10.90;99.90;;;;;;5125171;27;20061;-78
2023/04/29 08:37:15;;;;;;;9.27;3.90;;;10.90;99.90;;;;;;5097880;27;20189;-78
2023/04/29 08:39:45;;;;;;;6.97;3.05;;;10.90;99.90;;;;;;5097139;27;20046;-78
2023/04/29 08:42:11;;;;;;;8.32;3.28;;;11.00;99.90;;;;;;5118494;27;20040;-77
2023/04/29 08:44:38;;;;;;;7.28;3.38;;;11.00;99.90;;;;;;5097798;28;20443;-77
2023/04/29 08:47:05;;;;;;;5.80;2.83;;;11.10;99.90;;;;;;5089087;27;20408;-77
2023/04/29 08:49:32;;;;;;;6.55;2.97;;;11.00;99.90;;;;;;5114441;27;20489;-77
2023/04/29 08:51:58;;;;;;;6.82;3.03;;;11.10;99.90;;;;;;5093463;28;20493;-77
2023/04/29 08:54:24;;;;;;;8.68;3.17;;;11.10;99.90;;;;;;5094868;27;20043;-77
2023/04/29 08:56:50;;;;;;;6.55;3.22;;;11.10;99.90;;;;;;5098857;27;20572;-77
2023/04/29 08:59:17;;;;;;;5.57;2.67;;;11.20;99.90;;;;;;5094862;27;20039;-77
2023/04/29 09:01:49;;;;;;;5.53;2.53;;;11.30;99.90;;;;;;5101722;28;20780;-77
2023/04/29 09:04:20;;;;;;;6.75;2.92;;;11.40;99.90;;;;;;5083023;28;20503;-77
2023/04/29 09:06:47;;;;;;;7.25;2.83;;;11.30;99.90;;;;;;5074054;28;20039;-77
2023/04/29 09:09:14;;;;;;;8.07;2.90;;;11.30;99.90;;;;;;5120692;27;20038;-77
2023/04/29 09:11:40;;;;;;;5.72;2.72;;;11.30;99.90;;;;;;5101518;27;20035;-76
2023/04/29 09:14:07;;;;;;;6.95;3.33;;;11.30;99.90;;;;;;5087857;28;20036;-77
2023/04/29 09:16:34;;;;;;;8.48;2.97;;;11.40;99.90;;;;;;5124151;27;20040;-77
2023/04/29 09:18:59;;;;;;;7.45;2.72;;;11.50;99.90;;;;;;5089321;28;20044;-77
2023/04/29 09:21:27;;;;;;;5.70;2.60;;;11.50;99.90;;;;;;5102792;28;20039;-78
2023/04/29 09:23:57;;;;;;;6.28;2.60;;;11.50;99.90;;;;;;5098364;28;20126;-77
2023/04/29 09:26:23;;;;;;;5.05;2.70;;;11.60;99.90;;;;;;5090489;28;20062;-77
2023/04/29 09:29:08;;;;;;;5.63;2.42;;;11.70;99.90;;;;;;5089820;28;20082;-77
2023/04/29 09:31:34;;;;;;;5.10;2.55;;;11.70;99.90;;;;;;5070799;28;20378;-77
2023/04/29 09:33:59;;;;;;;5.90;2.83;;;11.80;99.90;;;;;;5089651;28;20042;-77
2023/04/29 09:36:40;;;;;;;5.03;2.30;;;11.80;99.90;;;;;;5087954;28;20055;-77
2023/04/29 09:39:15;;;;;;;8.77;3.13;;;11.90;99.90;;;;;;5087651;28;20044;-80
2023/04/29 09:41:51;;;;;;;8.27;3.15;;;12.00;99.90;;;;;;5075517;28;20380;-77
2023/04/29 09:44:17;;;;;;;5.78;2.65;;;12.00;99.90;;;;;;5075131;28;20043;-73
2023/04/29 09:46:53;;;;;;;5.15;2.17;;;12.00;99.90;;;;;;5090328;28;20381;-77
2023/04/29 09:49:27;;;;;;;4.90;2.42;;;12.00;99.90;;;;;;5078687;28;20036;-77
2023/04/29 09:51:58;;;;;;;5.22;2.70;;;11.90;99.90;;;;;;5089670;27;20527;-77
2023/04/29 09:54:28;;;;;;;5.88;2.70;;;12.00;99.90;;;;;;5097637;28;20035;-77
2023/04/29 09:56:55;;;;;;;6.60;2.80;;;12.00;99.90;;;;;;5072706;28;20047;-77
2023/04/29 09:59:21;;;;;;;5.55;2.92;;;12.00;99.90;;;;;;5088760;27;20109;-77
2023/04/29 10:01:49;;;;;;;6.28;2.78;;;11.90;99.90;;;;;;5093584;27;20383;-80
2023/04/29 10:04:16;;;;;;;7.95;2.60;;;12.00;99.90;;;;;;5094467;27;20397;-77
2023/04/29 10:06:44;;;;;;;4.70;2.38;;;12.00;99.90;;;;;;5097041;27;20111;-77
2023/04/29 10:09:16;;;;;;;6.75;3.00;;;12.00;99.90;;;;;;5093790;27;20084;-76
2023/04/29 10:11:43;;;;;;;4.95;2.33;;;12.00;99.90;;;;;;5096077;28;20097;-77
2023/04/29 10:14:15;;;;;;;7.93;2.88;;;12.00;99.90;;;;;;5067560;28;20202;-77
2023/04/29 10:16:47;;;;;;;8.48;2.63;;;12.00;99.90;;;;;;5086849;27;20040;-77
2023/04/29 10:19:32;;;;;;;6.78;2.55;;;12.10;99.90;;;;;;5083767;27;20047;-77
2023/04/29 10:22:03;;;;;;;7.28;3.28;;;12.10;99.90;;;;;;5091415;28;20136;-77
2023/04/29 10:24:31;;;;;;;6.13;2.30;;;12.10;99.90;;;;;;5091675;27;20059;-77
2023/04/29 10:26:58;;;;;;;8.23;3.55;;;12.20;99.90;;;;;;5076724;27;20060;-76
2023/04/29 10:29:26;;;;;;;4.93;1.98;;;12.30;99.90;;;;;;5093130;27;20039;-77
2023/04/29 10:31:53;;;;;;;7.03;2.55;;;12.30;99.90;;;;;;5092885;27;20036;-77
2023/04/29 10:34:19;;;;;;;6.28;2.30;;;12.30;99.90;;;;;;5110720;27;20696;-76
2023/04/29 10:36:46;;;;;;;5.93;2.60;;;12.30;99.90;;;;;;5098541;27;20056;-76
2023/04/29 10:39:20;;;;;;;6.22;2.70;;;12.30;99.90;;;;;;5091193;27;20062;-77
2023/04/29 10:41:46;;;;;;;5.40;2.63;;;12.30;99.90;;;;;;5119878;27;20036;-77
2023/04/29 10:44:12;;;;;;;6.95;2.42;;;12.20;99.90;;;;;;5091317;27;20043;-76
2023/04/29 10:46:38;;;;;;;5.68;2.03;;;12.20;99.90;;;;;;5089166;27;20079;-76
2023/04/29 10:49:06;;;;;;;4.05;1.75;;;12.30;99.90;;;;;;5104697;27;20493;-76
2023/04/29 10:51:44;;;;;;;3.65;2.10;;;12.30;99.90;;;;;;5101979;27;20122;-76
2023/04/29 10:54:15;;;;;;;4.15;2.47;;;12.30;99.90;;;;;;5124249;27;20086;-76
2023/04/29 10:56:49;;;;;;;5.70;2.38;;;12.30;99.90;;;;;;5100440;27;20043;-76
2023/04/29 10:59:27;;;;;;;4.07;1.73;;;12.40;99.90;;;;;;5097141;28;20040;-77
2023/04/29 11:01:53;;;;;;;5.80;2.20;;;12.40;99.90;;;;;;5108332;27;20050;-77
2023/04/29 11:04:20;;;;;;;5.57;2.33;;;12.40;99.90;;;;;;5099148;28;20071;-76
2023/04/29 11:06:57;;;;;;;4.25;2.20;;;12.50;99.90;;;;;;5094747;28;20032;-76
2023/04/29 11:09:23;;;;;;;6.03;2.20;;;12.50;99.90;;;;;;5095108;28;20043;-76
2023/04/29 11:12:07;;;;;;;5.00;1.85;;;12.60;99.90;;;;;;5100414;27;20035;-77
2023/04/29 11:14:39;;;;;;;5.25;2.05;;;12.50;99.90;;;;;;5092083;27;20430;-77
2023/04/29 11:17:09;;;;;;;4.28;2.10;;;12.50;99.90;;;;;;5093202;28;20092;-77
2023/04/29 11:19:49;;;;;;;4.53;2.00;;;12.50;99.90;;;;;;5077690;28;20456;-77
2023/04/29 11:22:21;;;;;;;4.20;2.03;;;12.60;99.90;;;;;;5092926;27;20052;-77
2023/04/29 11:25:08;;;;;;;4.05;1.80;;;12.50;99.90;;;;;;5100136;28;20031;-77
2023/04/29 11:27:39;;;;;;;5.60;1.65;;;12.50;99.90;;;;;;5071892;28;20036;-77
2023/04/29 11:30:06;;;;;;;4.32;2.03;;;12.50;99.90;;;;;;5081465;28;20035;-77
2023/04/29 11:32:41;;;;;;;4.40;1.83;;;12.60;99.90;;;;;;5109812;28;20035;-77
2023/04/29 11:35:08;;;;;;;4.80;2.10;;;12.60;99.90;;;;;;5093803;27;20382;-77
2023/04/29 11:37:34;;;;;;;4.53;2.00;;;12.60;99.90;;;;;;5088755;28;20040;-77
2023/04/29 11:40:00;;;;;;;6.20;2.25;;;12.60;99.90;;;;;;5128263;27;20558;-77
2023/04/29 11:42:26;;;;;;;5.03;1.95;;;12.60;99.90;;;;;;5121863;27;20039;-77
2023/04/29 11:44:55;;;;;;;6.15;2.22;;;12.60;99.90;;;;;;5074579;28;20036;-77
2023/04/29 11:47:25;;;;;;;5.45;2.03;;;12.70;99.90;;;;;;5137440;27;20047;-77
2023/04/29 11:49:51;;;;;;;3.47;1.63;;;12.70;99.90;;;;;;5101097;28;20031;-77
2023/04/29 11:52:16;;;;;;;6.10;1.58;;;12.70;99.90;;;;;;5144193;27;20393;-79
2023/04/29 11:54:42;;;;;;;6.95;2.22;;;12.70;99.90;;;;;;5078642;28;20039;-76
2023/04/29 11:57:09;;;;;;;7.60;1.70;;;12.70;99.90;;;;;;5093704;28;20753;-77
2023/04/29 11:59:35;;;;;;;4.88;1.92;;;12.80;99.90;;;;;;5106724;28;20045;-76
2023/04/29 12:02:01;;;;;;;4.45;2.17;;;12.70;99.90;;;;;;5086249;28;20043;-76
2023/04/29 12:04:26;;;;;;;5.88;2.05;;;12.80;99.90;;;;;;5103630;27;20048;-77
2023/04/29 12:06:52;;;;;;;6.05;3.08;;;12.80;99.90;;;;;;5137823;27;20043;-77
2023/04/29 12:09:18;;;;;;;3.38;1.88;;;12.90;99.90;;;;;;5143776;27;20047;-77
2023/04/29 12:11:45;;;;;;;4.68;1.98;;;12.90;99.90;;;;;;5090989;28;20039;-77
2023/04/29 12:14:13;;;;;;;3.90;1.73;;;12.80;99.90;;;;;;5085272;28;20043;-77
2023/04/29 12:16:39;;;;;;;5.80;2.15;;;12.80;99.90;;;;;;5091447;28;20130;-77
2023/04/29 12:19:05;;;;;;;3.78;1.83;;;12.90;99.90;;;;;;5108934;28;20082;-77
2023/04/29 12:21:32;;;;;;;7.35;2.22;;;12.90;99.90;;;;;;5108794;28;20044;-77
2023/04/29 12:24:00;;;;;;;3.90;1.60;;;12.90;99.90;;;;;;5091164;28;20039;-77
2023/04/29 12:26:31;;;;;;;5.55;2.10;;;12.90;99.90;;;;;;5106604;27;20053;-77
2023/04/29 12:29:00;;;;;;;3.78;1.52;;;12.90;99.90;;;;;;5107978;28;20051;-77
2023/04/29 12:31:35;;;;;;;4.15;1.73;;;12.90;99.90;;;;;;5126340;27;20040;-77
2023/04/29 12:34:03;;;;;;;4.05;1.88;;;12.90;99.60;;;;;;5108731;28;20040;-77
2023/04/29 12:36:29;;;;;;;4.28;1.45;;;12.90;99.70;;;;;;5109072;28;20042;-77
2023/04/29 12:38:54;;;;;;;4.43;1.48;;;13.00;99.40;;;;;;5142241;27;20526;-77
2023/04/29 12:41:37;;;;;;;3.28;1.40;;;12.90;99.50;;;;;;5090463;28;20254;-77
2023/04/29 12:44:05;;;;;;;3.15;1.70;;;12.90;97.70;;;;;;5139529;27;20397;-77
2023/04/29 12:46:37;;;;;;;4.00;1.52;;;13.00;98.90;;;;;;5108277;28;20067;-77
2023/04/29 12:49:04;;;;;;;4.00;1.40;;;13.00;94.90;;;;;;5104978;28;20130;-77